sensor_id;sensor_type;location;lat;lon;timestamp;P1;durP1;ratioP1;P2;durP2;ratioP2
4819;SDS011;2424;49.696;6.630;2023-06-24T00:00:45;1.90;;;1.80;;
4819;SDS011;2424;49.696;6.630;2023-06-24T00:06:08;2.03;;;1.93;;
4819;SDS011;2424;49.696;6.630;2023-06-24T00:11:31;2.37;;;2.27;;
4819;SDS011;2424;49.696;6.630;2023-06-24T00:16:53;2.20;;;2.10;;
4819;SDS011;2424;49.696;6.630;2023-06-24T00:22:16;2.00;;;1.90;;
4819;SDS011;2424;49.696;6.630;2023-06-24T00:27:40;2.00;;;1.90;;
4819;SDS011;2424;49.696;6.630;2023-06-24T00:33:03;2.23;;;2.07;;
4819;SDS011;2424;49.696;6.630;2023-06-24T00:38:29;2.83;;;2.13;;
4819;SDS011;2424;49.696;6.630;2023-06-24T00:43:53;2.23;;;2.13;;
4819;SDS011;2424;49.696;6.630;2023-06-24T00:49:17;2.20;;;2.10;;
4819;SDS011;2424;49.696;6.630;2023-06-24T00:54:39;2.23;;;2.13;;
4819;SDS011;2424;49.696;6.630;2023-06-24T01:00:03;1.83;;;1.73;;
4819;SDS011;2424;49.696;6.630;2023-06-24T01:05:29;2.23;;;2.07;;
4819;SDS011;2424;49.696;6.630;2023-06-24T01:10:55;2.10;;;2.00;;
4819;SDS011;2424;49.696;6.630;2023-06-24T01:16:31;2.40;;;2.30;;
4819;SDS011;2424;49.696;6.630;2023-06-24T01:22:04;2.63;;;2.43;;
4819;SDS011;2424;49.696;6.630;2023-06-24T01:27:45;2.17;;;2.07;;
4819;SDS011;2424;49.696;6.630;2023-06-24T01:33:23;2.10;;;2.00;;
4819;SDS011;2424;49.696;6.630;2023-06-24T01:38:53;11.63;;;2.30;;
4819;SDS011;2424;49.696;6.630;2023-06-24T01:44:19;3.07;;;2.90;;
4819;SDS011;2424;49.696;6.630;2023-06-24T01:49:43;2.60;;;2.40;;
4819;SDS011;2424;49.696;6.630;2023-06-24T01:55:07;2.07;;;1.97;;
4819;SDS011;2424;49.696;6.630;2023-06-24T02:00:31;2.17;;;2.03;;
4819;SDS011;2424;49.696;6.630;2023-06-24T02:05:56;2.70;;;2.20;;
4819;SDS011;2424;49.696;6.630;2023-06-24T02:11:18;5.70;;;2.37;;
4819;SDS011;2424;49.696;6.630;2023-06-24T02:16:42;2.17;;;2.07;;
4819;SDS011;2424;49.696;6.630;2023-06-24T02:22:08;2.30;;;2.20;;
4819;SDS011;2424;49.696;6.630;2023-06-24T02:27:30;2.50;;;2.10;;
4819;SDS011;2424;49.696;6.630;2023-06-24T02:32:53;2.03;;;1.93;;
4819;SDS011;2424;49.696;6.630;2023-06-24T02:38:16;2.27;;;2.17;;
4819;SDS011;2424;49.696;6.630;2023-06-24T02:43:38;2.20;;;2.10;;
4819;SDS011;2424;49.696;6.630;2023-06-24T02:49:00;2.03;;;1.93;;
4819;SDS011;2424;49.696;6.630;2023-06-24T02:54:25;2.30;;;2.20;;
4819;SDS011;2424;49.696;6.630;2023-06-24T02:59:47;2.20;;;1.97;;
4819;SDS011;2424;49.696;6.630;2023-06-24T03:05:09;2.13;;;2.03;;
4819;SDS011;2424;49.696;6.630;2023-06-24T03:10:33;1.97;;;1.87;;
4819;SDS011;2424;49.696;6.630;2023-06-24T03:15:57;3.30;;;2.00;;
4819;SDS011;2424;49.696;6.630;2023-06-24T03:21:19;2.30;;;2.20;;
4819;SDS011;2424;49.696;6.630;2023-06-24T03:26:43;2.43;;;2.33;;
4819;SDS011;2424;49.696;6.630;2023-06-24T03:32:05;2.30;;;2.20;;
4819;SDS011;2424;49.696;6.630;2023-06-24T03:37:29;2.53;;;2.10;;
4819;SDS011;2424;49.696;6.630;2023-06-24T03:42:53;2.40;;;2.30;;
4819;SDS011;2424;49.696;6.630;2023-06-24T03:48:15;2.60;;;2.37;;
4819;SDS011;2424;49.696;6.630;2023-06-24T03:53:37;2.77;;;2.13;;
4819;SDS011;2424;49.696;6.630;2023-06-24T03:59:00;2.57;;;2.47;;
4819;SDS011;2424;49.696;6.630;2023-06-24T04:04:22;2.50;;;2.30;;
4819;SDS011;2424;49.696;6.630;2023-06-24T04:09:45;2.60;;;2.40;;
4819;SDS011;2424;49.696;6.630;2023-06-24T04:15:09;2.40;;;2.30;;
4819;SDS011;2424;49.696;6.630;2023-06-24T04:20:32;2.20;;;2.10;;
4819;SDS011;2424;49.696;6.630;2023-06-24T04:25:54;2.07;;;1.97;;
4819;SDS011;2424;49.696;6.630;2023-06-24T04:31:17;2.70;;;2.50;;
4819;SDS011;2424;49.696;6.630;2023-06-24T04:36:39;13.73;;;2.77;;
4819;SDS011;2424;49.696;6.630;2023-06-24T04:42:02;2.63;;;2.43;;
4819;SDS011;2424;49.696;6.630;2023-06-24T04:47:25;2.50;;;2.40;;
4819;SDS011;2424;49.696;6.630;2023-06-24T04:52:51;2.87;;;2.67;;
4819;SDS011;2424;49.696;6.630;2023-06-24T04:58:14;2.30;;;2.20;;
4819;SDS011;2424;49.696;6.630;2023-06-24T05:03:37;2.83;;;2.63;;
4819;SDS011;2424;49.696;6.630;2023-06-24T05:08:59;2.57;;;2.37;;
4819;SDS011;2424;49.696;6.630;2023-06-24T05:14:21;2.37;;;2.27;;
4819;SDS011;2424;49.696;6.630;2023-06-24T05:19:44;2.50;;;2.30;;
4819;SDS011;2424;49.696;6.630;2023-06-24T05:25:07;2.93;;;2.73;;
4819;SDS011;2424;49.696;6.630;2023-06-24T05:30:29;2.73;;;2.60;;
4819;SDS011;2424;49.696;6.630;2023-06-24T05:35:52;2.57;;;2.43;;
4819;SDS011;2424;49.696;6.630;2023-06-24T05:41:14;2.63;;;2.53;;
4819;SDS011;2424;49.696;6.630;2023-06-24T05:46:36;3.03;;;2.83;;
4819;SDS011;2424;49.696;6.630;2023-06-24T05:52:02;2.80;;;2.60;;
4819;SDS011;2424;49.696;6.630;2023-06-24T05:57:24;2.40;;;2.30;;
4819;SDS011;2424;49.696;6.630;2023-06-24T06:02:49;3.13;;;2.83;;
4819;SDS011;2424;49.696;6.630;2023-06-24T06:08:12;2.33;;;2.23;;
4819;SDS011;2424;49.696;6.630;2023-06-24T06:13:34;3.30;;;3.10;;
4819;SDS011;2424;49.696;6.630;2023-06-24T06:18:56;2.53;;;2.40;;
4819;SDS011;2424;49.696;6.630;2023-06-24T06:24:19;2.50;;;2.40;;
4819;SDS011;2424;49.696;6.630;2023-06-24T06:29:41;2.73;;;2.53;;
4819;SDS011;2424;49.696;6.630;2023-06-24T06:35:04;3.30;;;3.00;;
4819;SDS011;2424;49.696;6.630;2023-06-24T06:40:28;3.20;;;3.00;;
4819;SDS011;2424;49.696;6.630;2023-06-24T06:45:50;2.87;;;2.53;;
4819;SDS011;2424;49.696;6.630;2023-06-24T06:51:12;2.23;;;2.13;;
4819;SDS011;2424;49.696;6.630;2023-06-24T06:56:35;3.47;;;3.17;;
4819;SDS011;2424;49.696;6.630;2023-06-24T07:01:57;3.00;;;2.80;;
4819;SDS011;2424;49.696;6.630;2023-06-24T07:07:19;2.97;;;2.77;;
4819;SDS011;2424;49.696;6.630;2023-06-24T07:12:43;3.07;;;2.87;;
4819;SDS011;2424;49.696;6.630;2023-06-24T07:18:05;3.00;;;2.80;;
4819;SDS011;2424;49.696;6.630;2023-06-24T07:23:27;3.17;;;2.90;;
4819;SDS011;2424;49.696;6.630;2023-06-24T07:28:50;3.30;;;3.00;;
4819;SDS011;2424;49.696;6.630;2023-06-24T07:34:13;3.30;;;3.10;;
4819;SDS011;2424;49.696;6.630;2023-06-24T07:39:35;3.80;;;3.50;;
4819;SDS011;2424;49.696;6.630;2023-06-24T07:44:58;3.00;;;2.80;;
4819;SDS011;2424;49.696;6.630;2023-06-24T07:50:20;3.40;;;2.80;;
4819;SDS011;2424;49.696;6.630;2023-06-24T07:55:42;2.93;;;2.70;;
4819;SDS011;2424;49.696;6.630;2023-06-24T08:01:06;3.70;;;3.40;;
4819;SDS011;2424;49.696;6.630;2023-06-24T08:06:27;2.80;;;2.60;;
4819;SDS011;2424;49.696;6.630;2023-06-24T08:11:49;4.17;;;3.03;;
4819;SDS011;2424;49.696;6.630;2023-06-24T08:17:13;3.30;;;3.10;;
4819;SDS011;2424;49.696;6.630;2023-06-24T08:22:35;4.57;;;3.43;;
4819;SDS011;2424;49.696;6.630;2023-06-24T08:27:57;3.80;;;3.20;;
4819;SDS011;2424;49.696;6.630;2023-06-24T08:33:20;3.43;;;3.00;;
4819;SDS011;2424;49.696;6.630;2023-06-24T08:38:42;3.37;;;3.17;;
4819;SDS011;2424;49.696;6.630;2023-06-24T08:44:04;4.40;;;3.50;;
4819;SDS011;2424;49.696;6.630;2023-06-24T08:49:28;6.27;;;3.03;;
4819;SDS011;2424;49.696;6.630;2023-06-24T08:54:51;3.07;;;2.87;;
4819;SDS011;2424;49.696;6.630;2023-06-24T09:00:18;2.30;;;2.20;;
4819;SDS011;2424;49.696;6.630;2023-06-24T09:05:42;2.60;;;2.40;;
4819;SDS011;2424;49.696;6.630;2023-06-24T09:11:05;2.60;;;2.40;;
4819;SDS011;2424;49.696;6.630;2023-06-24T09:16:29;2.53;;;2.43;;
4819;SDS011;2424;49.696;6.630;2023-06-24T09:21:53;1.83;;;1.73;;
4819;SDS011;2424;49.696;6.630;2023-06-24T09:27:15;2.20;;;2.10;;
4819;SDS011;2424;49.696;6.630;2023-06-24T09:32:40;2.90;;;2.70;;
4819;SDS011;2424;49.696;6.630;2023-06-24T09:38:05;2.70;;;2.50;;
4819;SDS011;2424;49.696;6.630;2023-06-24T09:43:28;3.40;;;2.30;;
4819;SDS011;2424;49.696;6.630;2023-06-24T09:48:50;1.93;;;1.83;;
4819;SDS011;2424;49.696;6.630;2023-06-24T09:54:14;2.10;;;2.00;;
4819;SDS011;2424;49.696;6.630;2023-06-24T09:59:37;2.23;;;2.13;;
4819;SDS011;2424;49.696;6.630;2023-06-24T10:04:59;2.43;;;2.33;;
4819;SDS011;2424;49.696;6.630;2023-06-24T10:10:23;3.07;;;2.60;;
4819;SDS011;2424;49.696;6.630;2023-06-24T10:15:45;2.40;;;2.20;;
4819;SDS011;2424;49.696;6.630;2023-06-24T10:21:08;2.90;;;2.47;;
4819;SDS011;2424;49.696;6.630;2023-06-24T10:26:35;3.23;;;2.93;;
4819;SDS011;2424;49.696;6.630;2023-06-24T10:32:00;2.20;;;2.10;;
4819;SDS011;2424;49.696;6.630;2023-06-24T10:37:26;2.00;;;1.90;;
4819;SDS011;2424;49.696;6.630;2023-06-24T10:42:54;4.23;;;2.60;;
4819;SDS011;2424;49.696;6.630;2023-06-24T10:48:16;2.27;;;2.17;;
4819;SDS011;2424;49.696;6.630;2023-06-24T10:53:39;2.00;;;1.90;;
4819;SDS011;2424;49.696;6.630;2023-06-24T10:59:03;1.73;;;1.63;;
4819;SDS011;2424;49.696;6.630;2023-06-24T11:04:25;2.87;;;2.57;;
4819;SDS011;2424;49.696;6.630;2023-06-24T11:09:50;1.97;;;1.87;;
4819;SDS011;2424;49.696;6.630;2023-06-24T11:15:15;1.80;;;1.70;;
4819;SDS011;2424;49.696;6.630;2023-06-24T11:20:39;2.20;;;2.10;;
4819;SDS011;2424;49.696;6.630;2023-06-24T11:26:02;3.97;;;2.20;;
4819;SDS011;2424;49.696;6.630;2023-06-24T11:31:26;2.20;;;2.10;;
4819;SDS011;2424;49.696;6.630;2023-06-24T11:36:48;2.60;;;2.40;;
4819;SDS011;2424;49.696;6.630;2023-06-24T11:42:10;3.53;;;2.30;;
4819;SDS011;2424;49.696;6.630;2023-06-24T11:47:34;2.70;;;2.50;;
4819;SDS011;2424;49.696;6.630;2023-06-24T11:52:57;2.60;;;2.50;;
4819;SDS011;2424;49.696;6.630;2023-06-24T11:58:19;2.10;;;2.00;;
4819;SDS011;2424;49.696;6.630;2023-06-24T12:03:43;2.50;;;2.30;;
4819;SDS011;2424;49.696;6.630;2023-06-24T12:09:05;2.00;;;1.90;;
4819;SDS011;2424;49.696;6.630;2023-06-24T12:14:27;2.33;;;2.23;;
4819;SDS011;2424;49.696;6.630;2023-06-24T12:19:50;2.10;;;2.00;;
4819;SDS011;2424;49.696;6.630;2023-06-24T12:25:12;1.97;;;1.87;;
4819;SDS011;2424;49.696;6.630;2023-06-24T12:30:34;2.20;;;2.10;;
4819;SDS011;2424;49.696;6.630;2023-06-24T12:35:58;4.70;;;2.37;;
4819;SDS011;2424;49.696;6.630;2023-06-24T12:41:20;1.20;;;1.10;;
4819;SDS011;2424;49.696;6.630;2023-06-24T12:46:42;3.20;;;2.53;;
4819;SDS011;2424;49.696;6.630;2023-06-24T12:52:05;2.20;;;2.10;;
4819;SDS011;2424;49.696;6.630;2023-06-24T12:57:28;2.40;;;2.20;;
4819;SDS011;2424;49.696;6.630;2023-06-24T13:02:50;2.23;;;2.03;;
4819;SDS011;2424;49.696;6.630;2023-06-24T13:08:13;2.63;;;2.53;;
4819;SDS011;2424;49.696;6.630;2023-06-24T13:13:35;2.30;;;2.20;;
4819;SDS011;2424;49.696;6.630;2023-06-24T13:18:57;2.40;;;2.20;;
4819;SDS011;2424;49.696;6.630;2023-06-24T13:24:21;2.10;;;2.00;;
4819;SDS011;2424;49.696;6.630;2023-06-24T13:29:43;2.33;;;2.13;;
4819;SDS011;2424;49.696;6.630;2023-06-24T13:35:05;2.03;;;1.93;;
4819;SDS011;2424;49.696;6.630;2023-06-24T13:40:29;2.50;;;2.37;;
4819;SDS011;2424;49.696;6.630;2023-06-24T13:45:51;2.87;;;2.37;;
4819;SDS011;2424;49.696;6.630;2023-06-24T13:51:13;2.13;;;2.03;;
4819;SDS011;2424;49.696;6.630;2023-06-24T13:56:36;2.30;;;2.20;;
4819;SDS011;2424;49.696;6.630;2023-06-24T14:01:58;2.40;;;2.20;;
4819;SDS011;2424;49.696;6.630;2023-06-24T14:07:20;2.23;;;1.80;;
4819;SDS011;2424;49.696;6.630;2023-06-24T14:12:44;1.50;;;1.50;;
4819;SDS011;2424;49.696;6.630;2023-06-24T14:18:06;2.67;;;1.97;;
4819;SDS011;2424;49.696;6.630;2023-06-24T14:23:28;1.90;;;1.80;;
4819;SDS011;2424;49.696;6.630;2023-06-24T14:28:51;1.90;;;1.80;;
4819;SDS011;2424;49.696;6.630;2023-06-24T14:34:13;2.17;;;2.07;;
4819;SDS011;2424;49.696;6.630;2023-06-24T14:39:36;2.50;;;2.30;;
4819;SDS011;2424;49.696;6.630;2023-06-24T14:44:59;1.80;;;1.70;;
4819;SDS011;2424;49.696;6.630;2023-06-24T14:50:21;1.47;;;1.37;;
4819;SDS011;2424;49.696;6.630;2023-06-24T14:55:43;2.37;;;2.17;;
4819;SDS011;2424;49.696;6.630;2023-06-24T15:01:06;2.80;;;2.50;;
4819;SDS011;2424;49.696;6.630;2023-06-24T15:06:28;2.90;;;2.70;;
4819;SDS011;2424;49.696;6.630;2023-06-24T15:11:50;2.00;;;1.90;;
4819;SDS011;2424;49.696;6.630;2023-06-24T15:17:14;2.10;;;2.00;;
4819;SDS011;2424;49.696;6.630;2023-06-24T15:22:36;1.87;;;1.80;;
4819;SDS011;2424;49.696;6.630;2023-06-24T15:27:58;2.40;;;2.30;;
4819;SDS011;2424;49.696;6.630;2023-06-24T15:33:22;2.33;;;2.23;;
4819;SDS011;2424;49.696;6.630;2023-06-24T15:38:43;2.20;;;2.10;;
4819;SDS011;2424;49.696;6.630;2023-06-24T15:44:06;2.13;;;2.03;;
4819;SDS011;2424;49.696;6.630;2023-06-24T15:49:29;2.73;;;2.53;;
4819;SDS011;2424;49.696;6.630;2023-06-24T15:54:51;2.23;;;2.07;;
4819;SDS011;2424;49.696;6.630;2023-06-24T16:00:13;2.30;;;2.10;;
4819;SDS011;2424;49.696;6.630;2023-06-24T16:05:37;2.80;;;2.30;;
4819;SDS011;2424;49.696;6.630;2023-06-24T16:10:59;1.93;;;1.83;;
4819;SDS011;2424;49.696;6.630;2023-06-24T16:16:21;2.47;;;2.03;;
4819;SDS011;2424;49.696;6.630;2023-06-24T16:21:44;2.20;;;2.00;;
4819;SDS011;2424;49.696;6.630;2023-06-24T16:27:07;2.30;;;2.20;;
4819;SDS011;2424;49.696;6.630;2023-06-24T16:32:29;2.37;;;2.20;;
4819;SDS011;2424;49.696;6.630;2023-06-24T16:37:52;2.40;;;2.20;;
4819;SDS011;2424;49.696;6.630;2023-06-24T16:43:14;1.93;;;1.83;;
4819;SDS011;2424;49.696;6.630;2023-06-24T16:48:37;1.97;;;1.87;;
4819;SDS011;2424;49.696;6.630;2023-06-24T16:54:00;2.03;;;1.93;;
4819;SDS011;2424;49.696;6.630;2023-06-24T16:59:22;2.80;;;2.60;;
4819;SDS011;2424;49.696;6.630;2023-06-24T17:04:44;2.50;;;2.30;;
4819;SDS011;2424;49.696;6.630;2023-06-24T17:10:08;2.20;;;2.10;;
4819;SDS011;2424;49.696;6.630;2023-06-24T17:15:30;2.20;;;2.10;;
4819;SDS011;2424;49.696;6.630;2023-06-24T17:20:52;1.80;;;1.80;;
4819;SDS011;2424;49.696;6.630;2023-06-24T17:26:15;3.10;;;2.77;;
4819;SDS011;2424;49.696;6.630;2023-06-24T17:31:37;2.20;;;2.10;;
4819;SDS011;2424;49.696;6.630;2023-06-24T17:36:59;1.97;;;1.87;;
4819;SDS011;2424;49.696;6.630;2023-06-24T17:42:23;3.00;;;2.50;;
4819;SDS011;2424;49.696;6.630;2023-06-24T17:47:45;2.10;;;2.00;;
4819;SDS011;2424;49.696;6.630;2023-06-24T17:53:07;2.20;;;2.10;;
4819;SDS011;2424;49.696;6.630;2023-06-24T17:58:30;2.23;;;2.13;;
4819;SDS011;2424;49.696;6.630;2023-06-24T18:03:52;2.83;;;2.63;;
4819;SDS011;2424;49.696;6.630;2023-06-24T18:09:15;2.17;;;2.07;;
4819;SDS011;2424;49.696;6.630;2023-06-24T18:14:41;2.10;;;2.00;;
4819;SDS011;2424;49.696;6.630;2023-06-24T18:20:03;2.50;;;2.40;;
4819;SDS011;2424;49.696;6.630;2023-06-24T18:25:25;1.80;;;1.77;;
4819;SDS011;2424;49.696;6.630;2023-06-24T18:30:49;1.90;;;1.80;;
4819;SDS011;2424;49.696;6.630;2023-06-24T18:36:11;1.90;;;1.80;;
4819;SDS011;2424;49.696;6.630;2023-06-24T18:41:33;1.90;;;1.80;;
4819;SDS011;2424;49.696;6.630;2023-06-24T18:46:57;2.33;;;2.10;;
4819;SDS011;2424;49.696;6.630;2023-06-24T18:52:19;3.40;;;2.57;;
4819;SDS011;2424;49.696;6.630;2023-06-24T18:57:41;2.30;;;2.13;;
4819;SDS011;2424;49.696;6.630;2023-06-24T19:03:04;2.17;;;2.07;;
4819;SDS011;2424;49.696;6.630;2023-06-24T19:08:26;2.20;;;2.10;;
4819;SDS011;2424;49.696;6.630;2023-06-24T19:13:48;2.10;;;1.97;;
4819;SDS011;2424;49.696;6.630;2023-06-24T19:19:12;1.93;;;1.83;;
4819;SDS011;2424;49.696;6.630;2023-06-24T19:24:34;1.80;;;1.70;;
4819;SDS011;2424;49.696;6.630;2023-06-24T19:29:57;1.90;;;1.80;;
4819;SDS011;2424;49.696;6.630;2023-06-24T19:35:21;2.20;;;2.10;;
4819;SDS011;2424;49.696;6.630;2023-06-24T19:40:43;2.37;;;2.17;;
4819;SDS011;2424;49.696;6.630;2023-06-24T19:46:05;2.30;;;2.20;;
4819;SDS011;2424;49.696;6.630;2023-06-24T19:51:28;2.23;;;2.13;;
4819;SDS011;2424;49.696;6.630;2023-06-24T19:56:52;1.97;;;1.87;;
4819;SDS011;2424;49.696;6.630;2023-06-24T20:02:14;2.17;;;1.90;;
4819;SDS011;2424;49.696;6.630;2023-06-24T20:07:38;2.80;;;2.60;;
4819;SDS011;2424;49.696;6.630;2023-06-24T20:13:00;2.57;;;2.47;;
4819;SDS011;2424;49.696;6.630;2023-06-24T20:18:22;1.97;;;1.87;;
4819;SDS011;2424;49.696;6.630;2023-06-24T20:23:45;2.33;;;2.23;;
4819;SDS011;2424;49.696;6.630;2023-06-24T20:29:08;2.30;;;2.20;;
4819;SDS011;2424;49.696;6.630;2023-06-24T20:34:31;3.90;;;2.97;;
4819;SDS011;2424;49.696;6.630;2023-06-24T20:39:54;3.00;;;2.80;;
4819;SDS011;2424;49.696;6.630;2023-06-24T20:45:16;2.90;;;2.70;;
4819;SDS011;2424;49.696;6.630;2023-06-24T20:50:39;2.80;;;2.60;;
4819;SDS011;2424;49.696;6.630;2023-06-24T20:56:02;3.03;;;2.83;;
4819;SDS011;2424;49.696;6.630;2023-06-24T21:01:24;3.37;;;3.17;;
4819;SDS011;2424;49.696;6.630;2023-06-24T21:06:46;2.40;;;2.30;;
4819;SDS011;2424;49.696;6.630;2023-06-24T21:12:10;2.60;;;2.40;;
4819;SDS011;2424;49.696;6.630;2023-06-24T21:17:34;3.40;;;3.20;;
4819;SDS011;2424;49.696;6.630;2023-06-24T21:22:56;2.73;;;2.60;;
4819;SDS011;2424;49.696;6.630;2023-06-24T21:28:19;2.90;;;2.70;;
4819;SDS011;2424;49.696;6.630;2023-06-24T21:33:41;3.03;;;2.87;;
4819;SDS011;2424;49.696;6.630;2023-06-24T21:39:03;3.93;;;3.53;;
4819;SDS011;2424;49.696;6.630;2023-06-24T21:44:26;3.20;;;3.00;;
4819;SDS011;2424;49.696;6.630;2023-06-24T21:49:49;3.07;;;2.93;;
4819;SDS011;2424;49.696;6.630;2023-06-24T21:55:11;3.40;;;3.13;;
4819;SDS011;2424;49.696;6.630;2023-06-24T22:00:34;4.00;;;3.60;;
4819;SDS011;2424;49.696;6.630;2023-06-24T22:05:56;3.83;;;3.50;;
4819;SDS011;2424;49.696;6.630;2023-06-24T22:11:18;3.20;;;3.00;;
4819;SDS011;2424;49.696;6.630;2023-06-24T22:16:42;2.97;;;2.80;;
4819;SDS011;2424;49.696;6.630;2023-06-24T22:22:03;2.83;;;2.73;;
4819;SDS011;2424;49.696;6.630;2023-06-24T22:27:25;3.40;;;3.10;;
4819;SDS011;2424;49.696;6.630;2023-06-24T22:32:49;3.27;;;3.07;;
4819;SDS011;2424;49.696;6.630;2023-06-24T22:38:11;2.70;;;2.60;;
4819;SDS011;2424;49.696;6.630;2023-06-24T22:43:33;3.20;;;3.00;;
4819;SDS011;2424;49.696;6.630;2023-06-24T22:48:57;3.43;;;3.30;;
4819;SDS011;2424;49.696;6.630;2023-06-24T22:54:18;3.17;;;2.90;;
4819;SDS011;2424;49.696;6.630;2023-06-24T22:59:40;3.30;;;3.10;;
4819;SDS011;2424;49.696;6.630;2023-06-24T23:05:04;2.87;;;2.67;;
4819;SDS011;2424;49.696;6.630;2023-06-24T23:10:27;2.70;;;2.60;;
4819;SDS011;2424;49.696;6.630;2023-06-24T23:15:50;3.33;;;3.13;;
4819;SDS011;2424;49.696;6.630;2023-06-24T23:21:14;2.80;;;2.70;;
4819;SDS011;2424;49.696;6.630;2023-06-24T23:26:37;4.33;;;3.60;;
4819;SDS011;2424;49.696;6.630;2023-06-24T23:32:02;3.13;;;2.93;;
4819;SDS011;2424;49.696;6.630;2023-06-24T23:37:28;3.47;;;3.00;;
4819;SDS011;2424;49.696;6.630;2023-06-24T23:42:50;3.17;;;2.97;;
4819;SDS011;2424;49.696;6.630;2023-06-24T23:48:14;4.00;;;2.90;;
4819;SDS011;2424;49.696;6.630;2023-06-24T23:53:38;3.40;;;3.20;;
4819;SDS011;2424;49.696;6.630;2023-06-24T23:59:00;2.40;;;2.30;;
